Soledad, California
Current Conditions -  °F | °C
As of 9:44 AM on Friday 21 Nov 2014 (Local Time) from KSNS Reporting Station
Haze Haze  
Wind Chill: 55°   Ceiling: 200
Heat Index: 55°   Visibility: 1.2mi
Dew Point: 54°   Wind: 0mph
Humidity: 94%   Direction: NA
Pressure: 30.11"   Gusts: NA
Location:  36.43°N, 121.32°W
Report Text: KSNS 211744Z 00000KT 1 1/4SM BR OVC002 13/12 A3011 RMK AO2
Loading
Personal Weather Stations






























Interactive Weather Map New forecast layout! Learn more

10-Day Weather Forecast

Advertisements
Track Severe Weather on mobile